Time;durP1;ratioP1;P1;durP2;ratioP2;P2;SDS_P1;SDS_P2;PMS_P1;PMS_P2;Temp;Humidity;BMP_temperature;BMP_pressure;BME280_temperature;BME280_humidity;BME280_pressure;Samples;Min_cycle;Max_cycle;Signal;HPM_P1;HPM_P2
2023/04/20 00:01:26;;;;;;;;;;;7.80;99.90;;;;;;5071629;28;20297;-65
2023/04/20 00:03:51;;;;;;;;;;;7.80;99.90;;;;;;5071813;28;19970;-65
2023/04/20 00:06:17;;;;;;;;;;;7.70;99.90;;;;;;5071479;28;19928;-65
2023/04/20 00:08:43;;;;;;;;;;;7.80;99.90;;;;;;5070906;28;19925;-66
2023/04/20 00:11:08;;;;;;;;;;;7.70;99.90;;;;;;5071601;28;19925;-64
2023/04/20 00:13:34;;;;;;;;;;;7.70;99.90;;;;;;5071792;28;19982;-64
2023/04/20 00:15:59;;;;;;;;;;;7.70;99.90;;;;;;5071849;28;19929;-65
2023/04/20 00:18:25;;;;;;;;;;;7.70;99.90;;;;;;5071379;28;20518;-64
2023/04/20 00:20:50;;;;;;;;;;;7.70;99.90;;;;;;5070841;28;19925;-65
2023/04/20 00:23:16;;;;;;;;;;;7.70;99.90;;;;;;5070095;28;19932;-65
2023/04/20 00:25:42;;;;;;;;;;;7.70;99.90;;;;;;5071670;28;19924;-65
2023/04/20 00:28:07;;;;;;;;;;;7.70;99.90;;;;;;5071415;28;19925;-67
2023/04/20 00:30:33;;;;;;;;;;;7.70;99.90;;;;;;5071675;28;19931;-64
2023/04/20 00:32:58;;;;;;;;;;;7.70;99.90;;;;;;5071757;28;20006;-64
2023/04/20 00:35:24;;;;;;;;;;;7.70;99.90;;;;;;5070222;28;19929;-64
2023/04/20 00:37:50;;;;;;;;;;;7.70;99.90;;;;;;5071653;28;19931;-66
2023/04/20 00:40:15;;;;;;;;;;;7.70;99.90;;;;;;5072689;28;20277;-66
2023/04/20 00:42:41;;;;;;;;;;;7.70;99.90;;;;;;5091224;28;20058;-66
2023/04/20 00:45:07;;;;;;;;;;;7.80;99.90;;;;;;5074094;28;20400;-64
2023/04/20 00:47:33;;;;;;;;;;;7.80;99.90;;;;;;5090874;28;19928;-65
2023/04/20 00:49:59;;;;;;;;;;;7.80;99.90;;;;;;5073828;28;19947;-65
2023/04/20 00:52:25;;;;;;;;;;;7.80;99.90;;;;;;5074677;28;19978;-67
2023/04/20 00:54:51;;;;;;;;;;;7.80;99.90;;;;;;5057489;28;19925;-66
2023/04/20 00:57:18;;;;;;;;;;;7.80;99.90;;;;;;5073620;28;20388;-64
2023/04/20 00:59:43;;;;;;;;;;;7.80;99.90;;;;;;5073782;28;19979;-65
2023/04/20 01:02:09;;;;;;;;;;;7.80;99.90;;;;;;5074889;28;20020;-66
2023/04/20 01:04:35;;;;;;;;;;;7.70;99.90;;;;;;5074624;28;19986;-65
2023/04/20 01:07:01;;;;;;;;;;;7.70;99.90;;;;;;5074252;28;19925;-66
2023/04/20 01:09:27;;;;;;;;;;;7.70;99.90;;;;;;5074348;28;19943;-65
2023/04/20 01:11:52;;;;;;;;;;;7.70;99.90;;;;;;5073607;28;19928;-65
2023/04/20 01:14:18;;;;;;;;;;;7.70;99.90;;;;;;5074432;28;20392;-66
2023/04/20 01:16:46;;;;;;;;;;;7.70;99.90;;;;;;5074701;28;20015;-65
2023/04/20 01:19:12;;;;;;;;;;;7.70;99.90;;;;;;5074572;28;20303;-66
2023/04/20 01:21:37;;;;;;;;;;;7.70;99.90;;;;;;5074350;28;19924;-65
2023/04/20 01:24:03;;;;;;;;;;;7.80;99.90;;;;;;5056786;28;19924;-65
2023/04/20 01:26:29;;;;;;;;;;;7.80;99.90;;;;;;5073656;28;19925;-65
2023/04/20 01:28:55;;;;;;;;;;;7.80;99.90;;;;;;5074390;28;19970;-66
2023/04/20 01:31:20;;;;;;;;;;;7.80;99.90;;;;;;5074099;28;19958;-65
2023/04/20 01:33:46;;;;;;;;;;;7.80;99.90;;;;;;5073314;28;20407;-66
2023/04/20 01:36:12;;;;;;;;;;;7.70;99.90;;;;;;5073243;28;19930;-65
2023/04/20 01:38:37;;;;;;;;;;;7.70;99.90;;;;;;5056055;28;19925;-64
2023/04/20 01:41:04;;;;;;;;;;;7.60;99.90;;;;;;5073168;28;19928;-64
2023/04/20 01:43:30;;;;;;;;;;;7.60;99.90;;;;;;5073638;28;19975;-66
2023/04/20 01:45:56;;;;;;;;;;;7.60;99.90;;;;;;5072833;28;19979;-64
2023/04/20 01:48:21;;;;;;;;;;;7.50;99.90;;;;;;5072689;28;19978;-64
2023/04/20 01:50:50;;;;;;;;;;;7.50;99.90;;;;;;5055831;28;19928;-64
2023/04/20 01:53:16;;;;;;;;;;;7.50;99.90;;;;;;5072726;28;19928;-66
2023/04/20 01:55:41;;;;;;;;;;;7.40;99.90;;;;;;5089244;28;20400;-66
2023/04/20 01:58:07;;;;;;;;;;;7.40;99.90;;;;;;5072457;28;19931;-65
2023/04/20 02:00:33;;;;;;;;;;;7.40;99.90;;;;;;5072156;28;19924;-65
2023/04/20 02:02:58;;;;;;;;;;;7.30;99.90;;;;;;5072638;28;19925;-64
2023/04/20 02:05:24;;;;;;;;;;;7.20;99.90;;;;;;5072227;28;20019;-64
2023/04/20 02:07:50;;;;;;;;;;;7.30;99.90;;;;;;5073585;28;19924;-65
2023/04/20 02:10:15;;;;;;;;;;;7.30;99.90;;;;;;5072420;28;20149;-63
2023/04/20 02:12:41;;;;;;;;;;;7.20;99.90;;;;;;5072271;28;19925;-65
2023/04/20 02:15:08;;;;;;;;;;;7.20;99.90;;;;;;5073462;28;19979;-66
2023/04/20 02:17:35;;;;;;;;;;;7.20;99.90;;;;;;5073022;28;20023;-65
2023/04/20 02:20:01;;;;;;;;;;;7.20;99.90;;;;;;5072436;28;20309;-64
2023/04/20 02:22:26;;;;;;;;;;;7.30;99.90;;;;;;5072962;28;19970;-64
2023/04/20 02:24:52;;;;;;;;;;;7.20;99.90;;;;;;5071819;28;19925;-65
2023/04/20 02:27:17;;;;;;;;;;;7.20;99.90;;;;;;5105505;28;19924;-64
2023/04/20 02:29:43;;;;;;;;;;;7.20;99.90;;;;;;5105656;28;19924;-64
2023/04/20 02:32:09;;;;;;;;;;;7.20;99.90;;;;;;5073199;28;19947;-64
2023/04/20 02:34:34;;;;;;;;;;;7.20;99.90;;;;;;5071600;28;19925;-64
2023/04/20 02:37:00;;;;;;;;;;;7.20;99.90;;;;;;5072109;28;19925;-64
2023/04/20 02:39:25;;;;;;;;;;;7.30;99.90;;;;;;5072340;28;20031;-66
2023/04/20 02:41:51;;;;;;;;;;;7.30;99.90;;;;;;5072086;28;19978;-65
2023/04/20 02:44:16;;;;;;;;;;;7.30;99.90;;;;;;5071602;28;19970;-64
2023/04/20 02:46:42;;;;;;;;;;;7.40;99.90;;;;;;5071327;28;19924;-65
2023/04/20 02:49:07;;;;;;;;;;;7.40;99.90;;;;;;5072738;28;20055;-64
2023/04/20 02:51:33;;;;;;;;;;;7.40;99.90;;;;;;5072541;28;19924;-65
2023/04/20 02:53:59;;;;;;;;;;;7.40;99.90;;;;;;5071229;28;19972;-64
2023/04/20 02:56:25;;;;;;;;;;;7.50;99.90;;;;;;5072692;28;19928;-65
2023/04/20 02:58:51;;;;;;;;;;;7.50;99.90;;;;;;5071050;28;19924;-65
2023/04/20 03:01:16;;;;;;;;;;;7.60;99.90;;;;;;5072616;28;19931;-65
2023/04/20 03:03:42;;;;;;;;;;;7.60;99.90;;;;;;5070310;28;19931;-65
2023/04/20 03:06:07;;;;;;;;;;;7.70;99.90;;;;;;5072425;28;19970;-64
2023/04/20 03:08:33;;;;;;;;;;;7.70;99.90;;;;;;5072167;28;20340;-65
2023/04/20 03:10:58;;;;;;;;;;;7.80;99.90;;;;;;5072291;28;20044;-65
2023/04/20 03:13:24;;;;;;;;;;;7.80;99.90;;;;;;5072383;28;19924;-65
2023/04/20 03:15:49;;;;;;;;;;;7.80;99.90;;;;;;5071687;28;19951;-65
2023/04/20 03:18:15;;;;;;;;;;;7.90;99.90;;;;;;5072350;28;19982;-64
2023/04/20 03:20:41;;;;;;;;;;;7.90;99.90;;;;;;5070959;28;19988;-65
2023/04/20 03:23:06;;;;;;;;;;;8.00;99.90;;;;;;5070878;28;19925;-66
2023/04/20 03:25:32;;;;;;;;;;;8.00;99.90;;;;;;5071814;28;19924;-67
2023/04/20 03:27:58;;;;;;;;;;;8.00;99.90;;;;;;5054119;28;19925;-64
2023/04/20 03:30:24;;;;;;;;;;;8.10;99.90;;;;;;5072184;28;19933;-65
2023/04/20 03:32:49;;;;;;;;;;;8.10;99.90;;;;;;5070771;28;19924;-64
2023/04/20 03:35:16;;;;;;;;;;;8.10;99.90;;;;;;5071937;28;20041;-65
2023/04/20 03:37:42;;;;;;;;;;;8.10;99.90;;;;;;5071730;28;19925;-64
2023/04/20 03:40:08;;;;;;;;;;;8.10;99.90;;;;;;5071964;28;19924;-66
2023/04/20 03:42:33;;;;;;;;;;;8.20;99.90;;;;;;5070885;28;19924;-67
2023/04/20 03:44:59;;;;;;;;;;;8.20;99.90;;;;;;5072110;28;20405;-65
2023/04/20 03:47:25;;;;;;;;;;;8.20;99.90;;;;;;5071792;28;19931;-64
2023/04/20 03:49:50;;;;;;;;;;;8.20;99.90;;;;;;5071787;28;19924;-65
2023/04/20 03:52:16;;;;;;;;;;;8.20;99.90;;;;;;5071974;28;19928;-65
2023/04/20 03:54:41;;;;;;;;;;;8.30;99.90;;;;;;5053230;28;20027;-65
2023/04/20 03:57:07;;;;;;;;;;;8.30;99.90;;;;;;5070765;28;19924;-65
2023/04/20 03:59:32;;;;;;;;;;;8.30;99.90;;;;;;5070660;28;20001;-65
2023/04/20 04:01:58;;;;;;;;;;;8.30;99.90;;;;;;5070282;28;19924;-65
2023/04/20 04:04:24;;;;;;;;;;;8.20;99.90;;;;;;5104614;28;20009;-64
2023/04/20 04:06:50;;;;;;;;;;;8.30;99.90;;;;;;5070176;28;19932;-65
2023/04/20 04:09:16;;;;;;;;;;;8.20;99.90;;;;;;5071911;28;19928;-65
2023/04/20 04:11:41;;;;;;;;;;;8.20;99.90;;;;;;5071335;28;19924;-66
2023/04/20 04:14:07;;;;;;;;;;;8.20;99.90;;;;;;5054868;28;19924;-66
2023/04/20 04:16:33;;;;;;;;;;;8.20;99.90;;;;;;5075780;28;20333;-64
2023/04/20 04:18:58;;;;;;;;;;;8.20;99.90;;;;;;5074127;28;19978;-64
2023/04/20 04:21:24;;;;;;;;;;;8.20;99.90;;;;;;5074446;28;19977;-64
2023/04/20 04:23:49;;;;;;;;;;;8.20;99.90;;;;;;5075177;28;19931;-65
2023/04/20 04:26:17;;;;;;;;;;;8.20;99.90;;;;;;5075070;28;19943;-64
2023/04/20 04:28:44;;;;;;;;;;;8.10;99.90;;;;;;5107692;28;19924;-67
2023/04/20 04:31:11;;;;;;;;;;;8.10;99.90;;;;;;5075365;28;19931;-65
2023/04/20 04:33:36;;;;;;;;;;;8.10;99.90;;;;;;5075280;28;19935;-65
2023/04/20 04:36:02;;;;;;;;;;;8.00;99.90;;;;;;5074458;28;19925;-64
2023/04/20 04:38:28;;;;;;;;;;;8.00;99.90;;;;;;5074345;28;19924;-64
2023/04/20 04:40:55;;;;;;;;;;;8.00;99.90;;;;;;5073569;28;19931;-64
2023/04/20 04:43:21;;;;;;;;;;;8.00;99.90;;;;;;5074887;28;20381;-64
2023/04/20 04:45:48;;;;;;;;;;;8.00;99.90;;;;;;5073622;28;19931;-67
2023/04/20 04:48:14;;;;;;;;;;;7.90;99.90;;;;;;5074062;28;19925;-66
2023/04/20 04:50:40;;;;;;;;;;;7.90;99.90;;;;;;5075476;28;20046;-65
2023/04/20 04:53:05;;;;;;;;;;;7.90;99.90;;;;;;5073886;28;20011;-65
2023/04/20 04:55:31;;;;;;;;;;;7.90;99.90;;;;;;5074964;28;19977;-65
2023/04/20 04:57:57;;;;;;;;;;;7.90;99.90;;;;;;5074766;28;19931;-65
2023/04/20 05:00:24;;;;;;;;;;;7.90;99.90;;;;;;5057341;28;19925;-65
2023/04/20 05:02:52;;;;;;;;;;;7.90;99.90;;;;;;5074639;28;20011;-67
2023/04/20 05:05:18;;;;;;;;;;;7.90;99.90;;;;;;5073840;28;20073;-64
2023/04/20 05:07:44;;;;;;;;;;;7.90;99.90;;;;;;5073583;28;19925;-65
2023/04/20 05:10:10;;;;;;;;;;;7.90;99.90;;;;;;5056906;28;19927;-64
2023/04/20 05:12:35;;;;;;;;;;;7.90;99.90;;;;;;5107715;28;20381;-65
2023/04/20 05:15:01;;;;;;;;;;;7.90;99.90;;;;;;5074282;28;19924;-65
2023/04/20 05:17:27;;;;;;;;;;;7.90;99.90;;;;;;5074647;28;19928;-64
2023/04/20 05:19:52;;;;;;;;;;;7.90;99.90;;;;;;5074411;28;20354;-68
2023/04/20 05:22:18;;;;;;;;;;;7.90;99.90;;;;;;5073347;28;20013;-66
2023/04/20 05:24:43;;;;;;;;;;;7.90;99.90;;;;;;5073363;28;19924;-65
2023/04/20 05:27:10;;;;;;;;;;;7.80;99.90;;;;;;5071478;28;20405;-65
2023/04/20 05:29:37;;;;;;;;;;;7.70;99.90;;;;;;5074519;28;20336;-65
2023/04/20 05:32:02;;;;;;;;;;;7.70;99.90;;;;;;5072781;28;19932;-65
2023/04/20 05:34:28;;;;;;;;;;;7.60;99.90;;;;;;5073473;28;19924;-65
2023/04/20 05:36:55;;;;;;;;;;;7.50;99.90;;;;;;5074179;28;19931;-66
2023/04/20 05:39:21;;;;;;;;;;;7.40;99.90;;;;;;5074370;28;19925;-66
2023/04/20 05:41:47;;;;;;;;;;;7.30;99.90;;;;;;5056419;28;20416;-66
2023/04/20 05:44:12;;;;;;;;;;;7.30;99.90;;;;;;5072599;28;19924;-66
2023/04/20 05:46:38;;;;;;;;;;;7.30;99.90;;;;;;5072872;28;20366;-65
2023/04/20 05:49:03;;;;;;;;;;;7.30;99.90;;;;;;5073532;28;20259;-65
2023/04/20 05:51:32;;;;;;;;;;;7.30;99.90;;;;;;5074013;28;19933;-65
2023/04/20 05:53:59;;;;;;;;;;;7.30;99.90;;;;;;5072526;28;19962;-66
2023/04/20 05:56:27;;;;;;;;;;;7.30;99.90;;;;;;5072506;28;19929;-65
2023/04/20 05:58:54;;;;;;;;;;;7.30;99.90;;;;;;5073695;28;19925;-65
2023/04/20 06:01:19;;;;;;;;;;;7.40;99.90;;;;;;5072077;28;20027;-65
2023/04/20 06:03:46;;;;;;;;;;;7.40;99.90;;;;;;5072517;28;20019;-65
2023/04/20 06:06:11;;;;;;;;;;;7.40;99.90;;;;;;5055234;28;19924;-64
2023/04/20 06:08:37;;;;;;;;;;;7.40;99.90;;;;;;5073583;28;19977;-65
2023/04/20 06:11:02;;;;;;;;;;;7.40;99.90;;;;;;5073275;28;19928;-66
2023/04/20 06:13:28;;;;;;;;;;;7.40;99.90;;;;;;5072424;28;20262;-65
2023/04/20 06:15:54;;;;;;;;;;;7.40;99.90;;;;;;5073604;28;19970;-65
2023/04/20 06:18:19;;;;;;;;;;;7.40;99.90;;;;;;5072750;28;19932;-65
2023/04/20 06:20:45;;;;;;;;;;;7.30;99.90;;;;;;5070583;28;19929;-67
2023/04/20 06:23:11;;;;;;;;;;;7.30;99.90;;;;;;5054946;28;19924;-65
2023/04/20 06:25:37;;;;;;;;;;;7.20;99.90;;;;;;5071943;28;20320;-65
2023/04/20 06:28:03;;;;;;;;;;;7.20;99.90;;;;;;5073028;28;19946;-68
2023/04/20 06:30:29;;;;;;;;;;;7.10;99.90;;;;;;5073082;28;20048;-67
2023/04/20 06:32:55;;;;;;;;;;;7.10;99.90;;;;;;5073225;28;20056;-66
2023/04/20 06:35:21;;;;;;;;;;;7.00;99.90;;;;;;5072730;28;19924;-67
2023/04/20 06:37:47;;;;;;;;;;;6.90;99.90;;;;;;5072677;28;20392;-66
2023/04/20 06:40:12;;;;;;;;;;;6.80;99.90;;;;;;5071706;28;19924;-66
2023/04/20 06:42:38;;;;;;;;;;;6.70;99.90;;;;;;5071785;28;19924;-66
2023/04/20 06:45:04;;;;;;;;;;;6.60;99.90;;;;;;5072070;28;19972;-66
2023/04/20 06:47:31;;;;;;;;;;;6.50;99.90;;;;;;5072458;28;19924;-67
2023/04/20 06:50:00;;;;;;;;;;;6.40;99.90;;;;;;5071997;28;19936;-67
2023/04/20 06:52:26;;;;;;;;;;;6.30;99.90;;;;;;5054633;28;19938;-66
2023/04/20 06:54:52;;;;;;;;;;;6.30;99.90;;;;;;5072762;28;20011;-66
2023/04/20 06:57:17;;;;;;;;;;;6.30;99.90;;;;;;5071287;28;19924;-66
2023/04/20 06:59:43;;;;;;;;;;;6.20;99.90;;;;;;5072706;28;19932;-67
2023/04/20 07:02:08;;;;;;;;;;;6.20;99.90;;;;;;5054450;28;19924;-65
2023/04/20 07:04:34;;;;;;;;;;;6.30;99.90;;;;;;5071675;28;19931;-65
2023/04/20 07:06:59;;;;;;;;;;;6.20;99.90;;;;;;5072550;28;20371;-67
2023/04/20 07:09:25;;;;;;;;;;;6.20;99.90;;;;;;5054607;28;19935;-65
2023/04/20 07:11:51;;;;;;;;;;;6.20;99.90;;;;;;5072118;28;19924;-65
2023/04/20 07:14:17;;;;;;;;;;;6.10;99.90;;;;;;5070874;28;19970;-66
2023/04/20 07:16:42;;;;;;;;;;;6.10;99.90;;;;;;5071191;28;19934;-65
2023/04/20 07:19:08;;;;;;;;;;;6.10;99.90;;;;;;5071107;28;20007;-66
2023/04/20 07:21:34;;;;;;;;;;;6.20;99.90;;;;;;5071580;28;20015;-67
2023/04/20 07:24:00;;;;;;;;;;;6.20;99.90;;;;;;5071006;28;20377;-65
2023/04/20 07:26:26;;;;;;;;;;;6.20;99.90;;;;;;5071820;28;19928;-66
2023/04/20 07:28:51;;;;;;;;;;;6.20;99.90;;;;;;5054070;28;20011;-67
2023/04/20 07:31:17;;;;;;;;;;;6.30;99.90;;;;;;5070593;28;20024;-67
2023/04/20 07:33:43;;;;;;;;;;;6.20;99.90;;;;;;5071887;28;19968;-68
2023/04/20 07:36:08;;;;;;;;;;;6.30;99.90;;;;;;5072165;28;19940;-66
2023/04/20 07:38:34;;;;;;;;;;;6.30;99.90;;;;;;5053168;28;19946;-67
2023/04/20 07:41:00;;;;;;;;;;;6.30;99.90;;;;;;5070141;28;19974;-67
2023/04/20 07:43:26;;;;;;;;;;;6.30;99.90;;;;;;5071510;28;19978;-67
2023/04/20 07:45:51;;;;;;;;;;;6.30;99.90;;;;;;5071918;28;20019;-66
2023/04/20 07:48:17;;;;;;;;;;;6.30;99.90;;;;;;5070292;28;19924;-68
2023/04/20 07:50:42;;;;;;;;;;;6.40;99.90;;;;;;5069983;28;19931;-66
2023/04/20 07:53:08;;;;;;;;;;;6.40;99.90;;;;;;5070541;28;19977;-66
2023/04/20 07:55:33;;;;;;;;;;;6.40;99.90;;;;;;5070444;28;20400;-66
2023/04/20 07:57:59;;;;;;;;;;;6.50;99.90;;;;;;5070781;28;19935;-66
2023/04/20 08:00:25;;;;;;;;;;;6.40;99.90;;;;;;5070271;28;19994;-67
2023/04/20 08:02:51;;;;;;;;;;;6.40;99.90;;;;;;5071808;28;20026;-66
2023/04/20 08:05:17;;;;;;;;;;;6.50;99.90;;;;;;5070582;28;20007;-65
2023/04/20 08:07:42;;;;;;;;;;;6.40;99.90;;;;;;5104496;28;19924;-66
2023/04/20 08:10:08;;;;;;;;;;;6.40;99.90;;;;;;5070659;28;19930;-66
2023/04/20 08:12:34;;;;;;;;;;;6.40;99.90;;;;;;5071110;28;19971;-66
2023/04/20 08:15:03;;;;;;;;;;;6.40;99.90;;;;;;5070691;28;19974;-65
2023/04/20 08:17:28;;;;;;;;;;;6.50;99.90;;;;;;5071288;28;19924;-65
2023/04/20 08:19:54;;;;;;;;;;;6.50;99.90;;;;;;5070635;28;19924;-65
2023/04/20 08:22:20;;;;;;;;;;;6.50;99.90;;;;;;5070100;28;19924;-66
2023/04/20 08:24:46;;;;;;;;;;;6.60;99.90;;;;;;5071134;28;20361;-65
2023/04/20 08:27:12;;;;;;;;;;;6.50;99.90;;;;;;5069904;28;19924;-65
2023/04/20 08:29:38;;;;;;;;;;;6.50;99.90;;;;;;5070039;28;19947;-65
2023/04/20 08:32:04;;;;;;;;;;;6.50;99.90;;;;;;5071427;28;20033;-65
2023/04/20 08:34:29;;;;;;;;;;;6.50;99.90;;;;;;5071096;28;20414;-66
2023/04/20 08:36:55;;;;;;;;;;;6.50;99.90;;;;;;5070339;28;19928;-65
2023/04/20 08:39:22;;;;;;;;;;;6.50;99.90;;;;;;5071501;28;20025;-65
2023/04/20 08:41:52;;;;;;;;;;;6.50;99.90;;;;;;5069799;28;20178;-65
2023/04/20 08:44:18;;;;;;;;;;;6.50;99.90;;;;;;5070548;28;20002;-65
2023/04/20 08:46:45;;;;;;;;;;;6.50;99.90;;;;;;5070855;28;19987;-66
2023/04/20 08:49:11;;;;;;;;;;;6.50;99.90;;;;;;5070574;28;19932;-66
2023/04/20 08:51:41;;;;;;;;;;;6.40;99.90;;;;;;5070846;28;20027;-66
2023/04/20 08:54:07;;;;;;;;;;;6.50;99.90;;;;;;5071362;28;19971;-65
2023/04/20 08:56:33;;;;;;;;;;;6.50;99.90;;;;;;5070895;28;20030;-65
2023/04/20 08:59:02;;;;;;;;;;;6.60;99.90;;;;;;5071300;28;20016;-65
2023/04/20 09:01:28;;;;;;;;;;;6.60;99.90;;;;;;5072390;28;19924;-67
2023/04/20 09:03:53;;;;;;;;;;;6.70;99.90;;;;;;5074604;28;19925;-64
2023/04/20 09:06:19;;;;;;;;;;;6.80;99.90;;;;;;5073547;28;20307;-65
2023/04/20 09:08:45;;;;;;;;;;;6.80;99.90;;;;;;5073476;28;19950;-64
2023/04/20 09:11:20;;;;;;;;;;;6.90;99.90;;;;;;5074715;28;19924;-65
2023/04/20 09:13:59;;;;;;;;;;;6.90;99.90;;;;;;5074195;28;19935;-65
2023/04/20 09:16:25;;;;;;;;;;;7.00;99.90;;;;;;5074722;28;19929;-65
2023/04/20 09:18:52;;;;;;;;;;;7.00;99.90;;;;;;5073148;28;19968;-66
2023/04/20 09:21:18;;;;;;;;;;;7.10;99.90;;;;;;5073423;28;19979;-65
2023/04/20 09:23:54;;;;;;;;;;;7.10;99.90;;;;;;5074095;28;20333;-66
2023/04/20 09:26:19;;;;;;;;;;;7.20;99.90;;;;;;5074173;28;19924;-65
2023/04/20 09:28:46;;;;;;;;;;;7.20;99.90;;;;;;5074167;28;19928;-65
2023/04/20 09:31:18;;;;;;;;;;;7.30;99.90;;;;;;5074330;28;20297;-67
2023/04/20 09:33:43;;;;;;;;;;;7.30;99.90;;;;;;5073784;28;19934;-66
2023/04/20 09:36:09;;;;;;;;;;;7.30;99.90;;;;;;5074261;28;20034;-65
2023/04/20 09:38:35;;;;;;;;;;;7.40;99.90;;;;;;5073753;28;20023;-66
2023/04/20 09:41:01;;;;;;;;;;;7.40;99.90;;;;;;5074239;28;20014;-67
2023/04/20 09:43:27;;;;;;;;;;;7.40;99.90;;;;;;5056107;28;19978;-66
2023/04/20 09:45:54;;;;;;;;;;;7.50;99.90;;;;;;5073524;28;20070;-66
2023/04/20 09:48:21;;;;;;;;;;;7.60;99.90;;;;;;5072960;28;19940;-65
2023/04/20 09:50:47;;;;;;;;;;;7.60;99.90;;;;;;5072654;28;19924;-66
2023/04/20 09:53:14;;;;;;;;;;;7.70;99.90;;;;;;5073999;28;20263;-67
2023/04/20 09:55:44;;;;;;;;;;;7.70;99.90;;;;;;5073310;28;20288;-69
2023/04/20 09:58:10;;;;;;;;;;;7.70;99.90;;;;;;5072547;28;20320;-69
2023/04/20 10:00:36;;;;;;;;;;;7.80;99.90;;;;;;5073416;28;20023;-68
2023/04/20 10:03:01;;;;;;;;;;;7.90;99.90;;;;;;5072638;28;19924;-70
2023/04/20 10:05:38;;;;;;;;;;;7.90;99.90;;;;;;5072951;28;19967;-70
2023/04/20 10:08:04;;;;;;;;;;;8.00;99.90;;;;;;5073961;28;19975;-69
2023/04/20 10:10:30;;;;;;;;;;;8.00;99.90;;;;;;5073802;28;19932;-71
2023/04/20 10:13:02;;;;;;;;;;;8.10;99.90;;;;;;5055092;28;20533;-70
2023/04/20 10:15:37;;;;;;;;;;;8.10;99.90;;;;;;5073750;28;19924;-70
2023/04/20 10:18:22;;;;;;;;;;;8.20;99.90;;;;;;5073586;28;20238;-72
2023/04/20 10:20:48;;;;;;;;;;;8.30;99.90;;;;;;5072222;28;19925;-68
2023/04/20 10:23:14;;;;;;;;;;;8.40;99.90;;;;;;5072242;28;20045;-69
2023/04/20 10:25:40;;;;;;;;;;;8.40;99.90;;;;;;5071654;28;19925;-69
2023/04/20 10:28:09;;;;;;;;;;;8.30;99.90;;;;;;5071912;28;20012;-70
2023/04/20 10:30:36;;;;;;;;;;;8.30;99.90;;;;;;5073068;28;19928;-69
2023/04/20 10:33:02;;;;;;;;;;;8.30;99.90;;;;;;5072696;28;19920;-71
2023/04/20 10:35:28;;;;;;;;;;;8.30;99.90;;;;;;5072204;28;19969;-71
2023/04/20 10:37:54;;;;;;;;;;;8.20;99.90;;;;;;5072422;28;19931;-70
2023/04/20 10:40:26;;;;;;;;;;;8.20;99.90;;;;;;5071934;28;19924;-71
2023/04/20 10:42:52;;;;;;;;;;;8.20;99.90;;;;;;5071587;28;19924;-72
2023/04/20 10:45:17;;;;;;;;;;;8.10;99.90;;;;;;5073826;28;19930;-68
2023/04/20 10:47:44;;;;;;;;;;;8.10;99.90;;;;;;5069554;28;19925;-71
2023/04/20 10:50:11;;;;;;;;;;;8.10;99.90;;;;;;5053925;28;20035;-68
2023/04/20 10:52:37;;;;;;;;;;;8.00;99.90;;;;;;5054772;28;20377;-71
2023/04/20 10:55:03;;;;;;;;;;;8.00;99.90;;;;;;5072620;28;20017;-69
2023/04/20 10:57:29;;;;;;;;;;;8.00;99.90;;;;;;5072400;28;19931;-70
2023/04/20 10:59:55;;;;;;;;;;;8.00;99.90;;;;;;5072184;28;20118;-68
2023/04/20 11:02:20;;;;;;;;;;;8.00;99.90;;;;;;5054807;28;20349;-69
2023/04/20 11:04:46;;;;;;;;;;;8.10;99.90;;;;;;5072337;28;20415;-69
2023/04/20 11:07:15;;;;;;;;;;;8.20;99.90;;;;;;5072574;28;19924;-69
2023/04/20 11:09:42;;;;;;;;;;;8.20;99.90;;;;;;5071922;28;19930;-66
2023/04/20 11:12:10;;;;;;;;;;;8.30;99.90;;;;;;5071494;28;19971;-69
2023/04/20 11:14:37;;;;;;;;;;;8.30;99.90;;;;;;5070980;28;19978;-69
2023/04/20 11:17:03;;;;;;;;;;;8.30;99.90;;;;;;5072206;28;19920;-69
2023/04/20 11:19:35;;;;;;;;;;;8.30;99.90;;;;;;5054609;28;20297;-69
2023/04/20 11:22:02;;;;;;;;;;;8.30;99.90;;;;;;5071952;28;20254;-69
2023/04/20 11:24:28;;;;;;;;;;;8.30;99.90;;;;;;5071878;28;19932;-68
2023/04/20 11:26:54;;;;;;;;;;;8.30;99.90;;;;;;5054282;28;19924;-69
2023/04/20 11:29:37;;;;;;;;;;;8.30;99.90;;;;;;5072206;28;19954;-69
2023/04/20 11:32:05;;;;;;;;;;;8.30;99.90;;;;;;5067284;28;20507;-70
2023/04/20 11:34:31;;;;;;;;;;;8.30;99.90;;;;;;5070271;28;19958;-70
2023/04/20 11:37:02;;;;;;;;;;;8.30;99.90;;;;;;5070604;28;20297;-68
2023/04/20 11:39:31;;;;;;;;;;;8.30;99.90;;;;;;5072091;28;19924;-68
2023/04/20 11:41:56;;;;;;;;;;;8.30;99.90;;;;;;5070370;28;19924;-69
2023/04/20 11:44:23;;;;;;;;;;;8.30;99.90;;;;;;5071324;28;20477;-70
2023/04/20 11:46:49;;;;;;;;;;;8.10;99.90;;;;;;5071942;28;19970;-69
2023/04/20 11:49:15;;;;;;;;;;;8.20;99.90;;;;;;5071174;28;20033;-69
2023/04/20 11:51:42;;;;;;;;;;;8.30;99.90;;;;;;5071500;28;19924;-69
2023/04/20 11:54:07;;;;;;;;;;;8.30;99.90;;;;;;5070313;28;20016;-67
2023/04/20 11:56:33;;;;;;;;;;;8.30;99.90;;;;;;5070946;28;20028;-68
2023/04/20 11:58:59;;;;;;;;;;;8.30;99.90;;;;;;5071396;28;19928;-68
2023/04/20 12:01:25;;;;;;;;;;;8.40;99.90;;;;;;5071850;28;20412;-68
2023/04/20 12:03:50;;;;;;;;;;;8.40;99.90;;;;;;5071661;28;19971;-69
2023/04/20 12:06:16;;;;;;;;;;;8.50;99.90;;;;;;5071972;28;19943;-69
2023/04/20 12:08:42;;;;;;;;;;;8.70;99.90;;;;;;5072135;28;19925;-68
2023/04/20 12:11:08;;;;;;;;;;;8.80;99.90;;;;;;5071191;28;20512;-68
2023/04/20 12:13:33;;;;;;;;;;;9.00;99.90;;;;;;5071809;28;19977;-68
2023/04/20 12:15:59;;;;;;;;;;;9.10;99.90;;;;;;5071707;28;20385;-70
2023/04/20 12:18:24;;;;;;;;;;;9.20;99.90;;;;;;5071899;28;20003;-68
2023/04/20 12:20:50;;;;;;;;;;;9.30;99.90;;;;;;5071594;28;19928;-66
2023/04/20 12:23:16;;;;;;;;;;;9.30;99.90;;;;;;5071166;28;20373;-68
2023/04/20 12:25:42;;;;;;;;;;;9.30;99.90;;;;;;5071844;28;19977;-68
2023/04/20 12:28:07;;;;;;;;;;;9.30;99.90;;;;;;5071167;28;19924;-67
2023/04/20 12:30:34;;;;;;;;;;;9.40;99.90;;;;;;5070576;28;20396;-68
2023/04/20 12:33:01;;;;;;;;;;;9.60;99.90;;;;;;5071494;28;20341;-68
2023/04/20 12:35:27;;;;;;;;;;;9.50;99.90;;;;;;5073154;28;19931;-68
2023/04/20 12:37:52;;;;;;;;;;;9.60;99.90;;;;;;5074669;28;19924;-67
2023/04/20 12:40:18;;;;;;;;;;;9.50;99.90;;;;;;5075793;28;20023;-68
2023/04/20 12:42:44;;;;;;;;;;;9.60;99.90;;;;;;5074358;28;19927;-69
2023/04/20 12:45:09;;;;;;;;;;;9.70;99.90;;;;;;5075205;28;19924;-68
2023/04/20 12:47:35;;;;;;;;;;;9.70;99.90;;;;;;5075413;28;19949;-68
2023/04/20 12:50:02;;;;;;;;;;;9.70;99.90;;;;;;5073774;28;20393;-68
2023/04/20 12:52:28;;;;;;;;;;;9.80;99.90;;;;;;5057870;28;19924;-67
2023/04/20 12:54:53;;;;;;;;;;;9.80;99.90;;;;;;5073879;28;19925;-67
2023/04/20 12:57:19;;;;;;;;;;;9.90;99.90;;;;;;5075119;28;19970;-68
2023/04/20 12:59:47;;;;;;;;;;;10.00;99.90;;;;;;5075196;28;19935;-68
2023/04/20 13:02:13;;;;;;;;;;;10.10;99.90;;;;;;5074973;28;19978;-68
2023/04/20 13:04:38;;;;;;;;;;;10.20;99.90;;;;;;5075063;28;19920;-69
2023/04/20 13:07:04;;;;;;;;;;;10.20;99.90;;;;;;5073564;28;19935;-70
2023/04/20 13:09:30;;;;;;;;;;;10.30;99.90;;;;;;5074028;28;20007;-68
2023/04/20 13:11:56;;;;;;;;;;;10.40;99.90;;;;;;5074762;28;20007;-67
2023/04/20 13:14:22;;;;;;;;;;;10.40;99.90;;;;;;5075176;28;19925;-68
2023/04/20 13:16:47;;;;;;;;;;;10.40;99.90;;;;;;5074010;28;19924;-67
2023/04/20 13:19:13;;;;;;;;;;;10.40;99.90;;;;;;5074642;28;20017;-68
2023/04/20 13:21:39;;;;;;;;;;;10.50;99.90;;;;;;5073966;28;20270;-68
2023/04/20 13:24:04;;;;;;;;;;;10.60;99.90;;;;;;5073816;28;20414;-68
2023/04/20 13:26:30;;;;;;;;;;;10.60;99.90;;;;;;5074727;28;20027;-68
2023/04/20 13:28:57;;;;;;;;;;;10.60;99.90;;;;;;5074955;28;20126;-67
2023/04/20 13:31:23;;;;;;;;;;;10.50;99.90;;;;;;5073575;28;19947;-68
2023/04/20 13:33:53;;;;;;;;;;;10.40;99.90;;;;;;5073672;28;19920;-69
2023/04/20 13:36:19;;;;;;;;;;;10.50;99.90;;;;;;5074210;28;20416;-67
2023/04/20 13:38:46;;;;;;;;;;;10.60;99.90;;;;;;5073701;28;19928;-68
2023/04/20 13:41:11;;;;;;;;;;;10.60;99.90;;;;;;5074496;28;19931;-68
2023/04/20 13:43:37;;;;;;;;;;;10.60;99.90;;;;;;5074468;28;19924;-68
2023/04/20 13:46:02;;;;;;;;;;;10.60;99.90;;;;;;5074348;28;19985;-67
2023/04/20 13:48:28;;;;;;;;;;;10.60;99.90;;;;;;5073298;28;19968;-68
2023/04/20 13:50:54;;;;;;;;;;;10.60;99.90;;;;;;5074893;28;20259;-68
2023/04/20 13:53:20;;;;;;;;;;;10.70;99.90;;;;;;5074202;28;19931;-69
2023/04/20 13:55:46;;;;;;;;;;;10.80;99.90;;;;;;5074206;28;20001;-67
2023/04/20 13:58:12;;;;;;;;;;;10.90;99.90;;;;;;5074042;28;19924;-68
2023/04/20 14:00:37;;;;;;;;;;;11.00;99.90;;;;;;5073037;28;19931;-67
2023/04/20 14:03:04;;;;;;;;;;;11.00;99.90;;;;;;5073930;28;19928;-66
2023/04/20 14:05:30;;;;;;;;;;;11.00;99.90;;;;;;5072553;28;20420;-67
2023/04/20 14:08:00;;;;;;;;;;;11.00;99.90;;;;;;5074096;28;19968;-68
2023/04/20 14:10:26;;;;;;;;;;;11.00;99.90;;;;;;5073498;28;20384;-68
2023/04/20 14:12:52;;;;;;;;;;;11.10;99.90;;;;;;5074066;28;19925;-68
2023/04/20 14:15:17;;;;;;;;;;;11.30;99.90;;;;;;5072650;28;19924;-69
2023/04/20 14:17:43;;;;;;;;;;;11.40;99.90;;;;;;5073977;28;19964;-68
2023/04/20 14:20:09;;;;;;;;;;;11.60;99.90;;;;;;5073543;28;19956;-67
2023/04/20 14:22:36;;;;;;;;;;;11.60;99.90;;;;;;5073758;28;20280;-68